KBTP/BTP METAR and TAF weather

Enter ICAO airport designator
Station Type Date Time Source
KBTP METAR 2021/09/23 23:56 UTC NOAA

KBTP 232356Z AUTO 22005KT 10SM BKN039 OVC060 13/08 A2994 RMK AO2 SLP144 6//// T01280083 10139 20122 53008


Station Type Date Time Source
KBTP Decoded METAR 2021/09/23 23:56 UTC NOAA

Butler, Butler County Airport/K W Scholter Field, PA, United States (KBTP) 40-47N 079-57W
Sep 23, 2021 - 07:56 PM EDT / 2021.09.23 2356 UTC
Wind: from the SW (220 degrees) at 6 MPH (5 KT):0
Visibility: 10 mile(s):0
Sky conditions: overcast
Temperature: 55.0 F (12.8 C)
Dew Point: 46.9 F (8.3 C)
Relative Humidity: 74%
Pressure (altimeter): 29.94 in. Hg (1013 hPa)
Pressure tendency: 0.02 inches (0.8 hPa) higher than three hours ago
ob: KBTP 232356Z AUTO 22005KT 10SM BKN039 OVC060 13/08 A2994 RMK AO2 SLP144 6//// T01280083 10139 20122 53008
cycle: 0

Station Type Date Time Source
KBTP TAF UTC NOAA

Error!

Example: see airport list